createdAt,value
2019-02-23T00:04:06.010Z,36.90
2019-02-23T00:09:08.137Z,38.43
2019-02-23T00:14:10.382Z,38.37
2019-02-23T00:19:12.410Z,37.87
2019-02-23T00:24:17.624Z,38.97
2019-02-23T00:29:19.678Z,37.67
2019-02-23T00:34:25.569Z,36.07
2019-02-23T00:39:27.640Z,38.40
2019-02-23T00:44:32.197Z,38.23
2019-02-23T00:49:36.507Z,38.13
2019-02-23T00:54:40.846Z,37.27
2019-02-23T00:59:43.153Z,37.93
2019-02-23T01:04:45.214Z,39.60
2019-02-23T01:09:47.244Z,38.93
2019-02-23T01:14:51.825Z,38.93
2019-02-23T01:19:55.636Z,38.87
2019-02-23T01:24:59.315Z,38.23
2019-02-23T01:30:02.771Z,39.00
2019-02-23T01:35:04.999Z,38.60
2019-02-23T01:40:11.762Z,37.90
2019-02-23T01:45:14.301Z,37.27
2019-02-23T01:50:16.363Z,36.37
2019-02-23T01:55:22.956Z,36.17
2019-02-23T02:00:25.437Z,34.97
2019-02-23T02:05:30.428Z,36.63
2019-02-23T02:10:34.025Z,34.57
2019-02-23T02:15:38.782Z,36.70
2019-02-23T02:20:40.949Z,34.27
2019-02-23T02:25:43.047Z,35.40
2019-02-23T02:30:48.274Z,35.03
2019-02-23T02:35:57.392Z,34.03
2019-02-23T02:40:59.675Z,34.60
2019-02-23T02:46:01.699Z,34.50
2019-02-23T02:51:03.760Z,34.33
2019-02-23T02:56:05.857Z,33.60
2019-02-23T03:01:08.243Z,35.23
2019-02-23T03:06:10.300Z,34.90
2019-02-23T03:11:12.510Z,34.90
2019-02-23T03:16:14.587Z,35.63
2019-02-23T03:21:19.795Z,36.03
2019-02-23T03:26:21.899Z,34.43
2019-02-23T03:31:27.623Z,34.43
2019-02-23T03:36:29.640Z,32.90
2019-02-23T03:41:32.896Z,32.87
2019-02-23T03:46:36.558Z,32.50
2019-02-23T03:51:41.294Z,33.80
2019-02-23T03:56:44.742Z,32.90
2019-02-23T04:01:54.880Z,32.17
2019-02-23T04:06:58.272Z,32.07
2019-02-23T04:12:00.437Z,32.33
2019-02-23T04:17:02.576Z,30.53
2019-02-23T04:22:04.831Z,32.00
2019-02-23T04:27:06.874Z,30.80
2019-02-23T04:32:09.422Z,31.03
2019-02-23T04:37:11.442Z,29.57
2019-02-23T04:42:13.486Z,30.53
2019-02-23T04:47:15.504Z,28.30
2019-02-23T04:52:17.608Z,28.43
2019-02-23T04:57:19.696Z,30.80
2019-02-23T05:02:21.887Z,30.37
2019-02-23T05:07:27.631Z,31.30
2019-02-23T05:12:29.853Z,31.30
2019-02-23T05:17:31.893Z,29.97
2019-02-23T05:22:33.981Z,28.77
2019-02-23T05:27:36.100Z,30.70
2019-02-23T05:32:38.277Z,29.67
2019-02-23T05:37:40.385Z,30.07
2019-02-23T05:42:47.662Z,31.60
2019-02-23T05:47:49.690Z,31.60
2019-02-23T05:52:51.769Z,31.00
2019-02-23T05:57:53.784Z,30.70
2019-02-23T06:02:57.331Z,29.93
2019-02-23T06:07:59.675Z,30.53
2019-02-23T06:13:02.893Z,30.93
2019-02-23T06:18:12.471Z,31.53
2019-02-23T06:23:17.611Z,30.23
2019-02-23T06:28:22.226Z,32.10
2019-02-23T06:33:27.044Z,31.70
2019-02-23T06:38:29.084Z,30.27
2019-02-23T06:43:32.814Z,31.63
2019-02-23T06:48:34.945Z,30.90
2019-02-23T06:53:41.654Z,29.43
2019-02-23T06:58:45.391Z,30.33
2019-02-23T07:03:47.472Z,32.33
2019-02-23T07:08:49.558Z,30.90
2019-02-23T07:13:51.694Z,30.37
2019-02-23T07:18:53.736Z,29.27
2019-02-23T07:24:00.590Z,30.87
2019-02-23T07:29:04.391Z,30.23
2019-02-23T07:34:11.640Z,27.27
2019-02-23T07:39:13.940Z,29.47
2019-02-23T07:44:16.188Z,28.83
2019-02-23T07:49:18.217Z,26.47
2019-02-23T07:54:22.647Z,26.50
2019-02-23T07:59:24.751Z,26.00
2019-02-23T08:04:26.915Z,26.20
2019-02-23T08:09:31.556Z,25.57
2019-02-23T08:14:33.534Z,26.93
2019-02-23T08:19:35.572Z,25.67
2019-02-23T08:24:37.910Z,26.37
2019-02-23T08:29:39.907Z,24.60
2019-02-23T08:34:42.167Z,24.43
2019-02-23T08:39:44.309Z,24.83
2019-02-23T08:44:46.322Z,23.10
2019-02-23T08:49:50.210Z,24.60
2019-02-23T08:54:52.250Z,24.40
2019-02-23T08:59:54.325Z,23.73
2019-02-23T09:04:56.473Z,25.80
2019-02-23T09:09:58.509Z,24.37
2019-02-23T09:15:03.819Z,22.93
2019-02-23T09:20:06.033Z,23.33
2019-02-23T09:25:12.675Z,23.93
2019-02-23T09:30:23.045Z,23.13
2019-02-23T09:35:25.104Z,23.07
2019-02-23T09:40:32.049Z,23.70
2019-02-23T09:45:34.091Z,22.83
2019-02-23T09:50:36.521Z,23.20
2019-02-23T09:55:40.439Z,23.33
2019-02-23T10:00:44.341Z,22.03
2019-02-23T10:05:46.358Z,23.73
2019-02-23T10:10:48.518Z,23.53
2019-02-23T10:15:52.079Z,21.93
2019-02-23T10:20:59.025Z,22.37
2019-02-23T10:26:02.298Z,27.45
2019-02-23T10:31:05.534Z,23.70
2019-02-23T10:36:07.579Z,21.47
2019-02-23T10:41:09.657Z,22.33
2019-02-23T10:46:12.248Z,21.13
2019-02-23T10:51:17.666Z,20.97
2019-02-23T10:56:19.797Z,21.47
2019-02-23T11:01:22.032Z,21.10
2019-02-23T11:06:24.066Z,21.23
2019-02-23T11:11:26.255Z,21.83
2019-02-23T11:16:28.266Z,21.70
2019-02-23T11:21:31.750Z,22.13
2019-02-23T11:26:34.288Z,21.90
2019-02-23T11:31:36.796Z,21.50
2019-02-23T11:36:38.807Z,22.17
2019-02-23T11:41:40.862Z,20.80
2019-02-23T11:46:59.204Z,21.20
2019-02-23T11:51:49.578Z,21.83
2019-02-23T11:56:51.707Z,21.90
2019-02-23T12:01:55.133Z,21.33
2019-02-23T12:06:57.209Z,20.63
2019-02-23T12:11:59.548Z,21.43
2019-02-23T12:17:01.540Z,20.70
2019-02-23T12:22:12.063Z,19.10
2019-02-23T12:27:08.063Z,19.73
2019-02-23T12:32:15.875Z,20.40
2019-02-23T12:37:19.684Z,20.87
2019-02-23T12:42:21.695Z,20.43
2019-02-23T12:47:23.699Z,16.93
2019-02-23T12:52:28.731Z,18.23
2019-02-23T12:57:30.792Z,17.90
2019-02-23T13:02:33.006Z,17.70
2019-02-23T13:07:39.065Z,17.80
2019-02-23T13:13:03.115Z,18.20
2019-02-23T13:18:36.769Z,18.40
2019-02-23T13:24:04.433Z,20.03
2019-02-23T13:29:52.092Z,19.60
2019-02-23T13:35:40.986Z,18.40
2019-02-23T13:41:11.630Z,19.13
2019-02-23T13:46:48.320Z,19.30
2019-02-23T13:52:18.612Z,20.17
2019-02-23T13:58:01.892Z,20.37
2019-02-23T14:03:44.551Z,18.53
2019-02-23T14:09:33.671Z,19.87
2019-02-23T14:15:03.366Z,17.13
2019-02-23T14:20:48.253Z,18.00
2019-02-23T14:26:41.176Z,17.43
2019-02-23T14:32:04.743Z,16.83
2019-02-23T14:37:38.320Z,17.90
2019-02-23T14:43:25.180Z,15.83
2019-02-23T14:49:07.425Z,16.83
2019-02-23T14:55:00.722Z,16.87
2019-02-23T15:00:50.895Z,17.87
2019-02-23T15:06:24.247Z,17.47
2019-02-23T15:11:47.323Z,18.30
2019-02-23T15:17:31.960Z,17.43
2019-02-23T15:23:00.235Z,16.10
2019-02-23T15:28:37.608Z,16.97
2019-02-23T15:34:22.490Z,16.70
2019-02-23T15:39:54.505Z,15.93
2019-02-23T15:45:57.160Z,16.97
2019-02-23T15:51:02.339Z,15.43
2019-02-23T15:56:12.708Z,15.93
2019-02-23T16:01:15.054Z,14.70
2019-02-23T16:06:18.355Z,14.70
2019-02-23T16:11:21.592Z,15.47
2019-02-23T16:16:23.652Z,14.80
2019-02-23T16:21:25.744Z,15.83
2019-02-23T16:26:27.754Z,15.90
2019-02-23T16:31:32.637Z,15.80
2019-02-23T16:36:34.652Z,16.53
2019-02-23T16:41:40.449Z,16.87
2019-02-23T16:46:46.463Z,16.57
2019-02-23T16:51:51.722Z,15.07
2019-02-23T16:56:53.779Z,16.37
2019-02-23T17:01:57.395Z,15.27
2019-02-23T17:06:59.652Z,14.00
2019-02-23T17:12:02.024Z,14.50
2019-02-23T17:17:04.058Z,13.23
2019-02-23T17:22:06.059Z,13.27
2019-02-23T17:27:10.125Z,12.77
2019-02-23T17:32:16.331Z,12.67
2019-02-23T17:37:20.288Z,14.05
2019-02-23T17:42:28.094Z,12.80
2019-02-23T17:47:26.294Z,12.60
2019-02-23T17:52:29.193Z,13.33
2019-02-23T17:57:34.150Z,14.43
2019-02-23T18:02:38.224Z,13.50
2019-02-23T18:07:40.813Z,13.30
2019-02-23T18:12:43.326Z,14.97
2019-02-23T18:17:45.380Z,14.50
2019-02-23T18:22:48.516Z,13.40
2019-02-23T18:27:53.669Z,12.93
2019-02-23T18:32:55.753Z,14.77
2019-02-23T18:38:02.825Z,13.90
2019-02-23T18:43:07.504Z,13.93
2019-02-23T18:48:12.588Z,14.53
2019-02-23T18:53:19.909Z,13.83
2019-02-23T18:58:23.273Z,14.53
2019-02-23T19:03:25.510Z,14.20
2019-02-23T19:08:28.921Z,14.77
2019-02-23T19:13:31.233Z,14.77
2019-02-23T19:18:33.354Z,14.47
2019-02-23T19:23:35.644Z,14.37
2019-02-23T19:28:43.168Z,14.23
2019-02-23T19:33:47.739Z,14.80
2019-02-23T19:38:52.676Z,15.13
2019-02-23T19:43:57.162Z,14.57
2019-02-23T19:48:59.303Z,14.10
2019-02-23T19:54:02.754Z,15.27
2019-02-23T19:59:08.085Z,15.03
2019-02-23T20:04:11.493Z,16.13
2019-02-23T20:09:13.544Z,15.33
2019-02-23T20:14:15.700Z,16.50
2019-02-23T20:19:19.650Z,15.57
2019-02-23T20:24:21.902Z,16.50
2019-02-23T20:29:26.123Z,14.80
2019-02-23T20:34:32.933Z,15.87
2019-02-23T20:39:34.986Z,16.63
2019-02-23T20:44:38.226Z,16.03
2019-02-23T20:49:40.327Z,15.93
2019-02-23T20:54:43.851Z,16.03
2019-02-23T20:59:48.831Z,15.23
2019-02-23T21:04:52.807Z,16.23
2019-02-23T21:09:55.063Z,14.60
2019-02-23T21:15:00.924Z,17.77
2019-02-23T21:20:03.150Z,14.13
2019-02-23T21:25:07.978Z,14.53
2019-02-23T21:30:10.522Z,13.83
2019-02-23T21:35:15.170Z,15.03
2019-02-23T21:40:19.956Z,13.37
2019-02-23T21:45:34.766Z,14.13
2019-02-23T21:50:32.530Z,13.17
2019-02-23T21:55:37.432Z,13.63
2019-02-23T22:00:42.482Z,13.90
2019-02-23T22:05:46.725Z,13.57
2019-02-23T22:10:48.797Z,13.03
2019-02-23T22:15:53.245Z,14.00
2019-02-23T22:20:55.546Z,14.20
2019-02-23T22:25:57.565Z,12.53
2019-02-23T22:31:01.858Z,13.53
2019-02-23T22:36:08.777Z,13.67
2019-02-23T22:41:14.199Z,13.43
2019-02-23T22:46:18.770Z,13.83
2019-02-23T22:51:21.087Z,14.07
2019-02-23T22:56:26.213Z,14.60
2019-02-23T23:01:28.521Z,14.17
2019-02-23T23:06:33.306Z,13.87
2019-02-23T23:11:39.929Z,14.50
2019-02-23T23:16:42.172Z,13.97
2019-02-23T23:21:48.124Z,14.47
2019-02-23T23:26:52.076Z,13.50
2019-02-23T23:31:56.134Z,13.97
2019-02-23T23:37:00.879Z,14.27
2019-02-23T23:42:03.187Z,14.87
2019-02-23T23:47:05.276Z,14.37
2019-02-23T23:52:08.436Z,14.80
2019-02-23T23:57:10.486Z,14.53
